sensor_id;sensor_type;location;lat;lon;timestamp;P1;durP1;ratioP1;P2;durP2;ratioP2
40074;SDS011;26529;51.530;11.754;2023-01-29T00:01:24;16.70;;;9.25;;
40074;SDS011;26529;51.530;11.754;2023-01-29T00:03:50;16.67;;;9.43;;
40074;SDS011;26529;51.530;11.754;2023-01-29T00:06:16;14.48;;;8.88;;
40074;SDS011;26529;51.530;11.754;2023-01-29T00:08:42;18.25;;;9.10;;
40074;SDS011;26529;51.530;11.754;2023-01-29T00:11:08;18.52;;;9.68;;
40074;SDS011;26529;51.530;11.754;2023-01-29T00:13:33;16.35;;;9.18;;
40074;SDS011;26529;51.530;11.754;2023-01-29T00:15:59;17.73;;;10.40;;
40074;SDS011;26529;51.530;11.754;2023-01-29T00:18:26;17.55;;;8.88;;
40074;SDS011;26529;51.530;11.754;2023-01-29T00:20:51;17.70;;;9.23;;
40074;SDS011;26529;51.530;11.754;2023-01-29T00:23:17;15.43;;;8.82;;
40074;SDS011;26529;51.530;11.754;2023-01-29T00:25:43;15.95;;;9.52;;
40074;SDS011;26529;51.530;11.754;2023-01-29T00:28:10;14.55;;;9.13;;
40074;SDS011;26529;51.530;11.754;2023-01-29T00:30:36;15.02;;;8.93;;
40074;SDS011;26529;51.530;11.754;2023-01-29T00:33:02;16.20;;;8.23;;
40074;SDS011;26529;51.530;11.754;2023-01-29T00:35:29;16.70;;;8.63;;
40074;SDS011;26529;51.530;11.754;2023-01-29T00:37:55;16.23;;;8.85;;
40074;SDS011;26529;51.530;11.754;2023-01-29T00:40:21;15.45;;;8.50;;
40074;SDS011;26529;51.530;11.754;2023-01-29T00:42:47;14.68;;;8.15;;
40074;SDS011;26529;51.530;11.754;2023-01-29T00:45:32;14.75;;;8.32;;
40074;SDS011;26529;51.530;11.754;2023-01-29T00:47:58;15.18;;;8.57;;
40074;SDS011;26529;51.530;11.754;2023-01-29T00:50:24;16.05;;;9.48;;
40074;SDS011;26529;51.530;11.754;2023-01-29T00:52:49;16.50;;;8.70;;
40074;SDS011;26529;51.530;11.754;2023-01-29T00:55:17;14.85;;;8.82;;
40074;SDS011;26529;51.530;11.754;2023-01-29T00:57:42;13.07;;;8.48;;
40074;SDS011;26529;51.530;11.754;2023-01-29T01:00:11;13.00;;;8.30;;
40074;SDS011;26529;51.530;11.754;2023-01-29T01:02:38;14.20;;;8.02;;
40074;SDS011;26529;51.530;11.754;2023-01-29T01:05:22;16.10;;;9.32;;
40074;SDS011;26529;51.530;11.754;2023-01-29T01:07:52;14.07;;;8.60;;
40074;SDS011;26529;51.530;11.754;2023-01-29T01:10:21;12.80;;;8.27;;
40074;SDS011;26529;51.530;11.754;2023-01-29T01:13:01;14.38;;;8.88;;
40074;SDS011;26529;51.530;11.754;2023-01-29T01:15:30;14.90;;;9.32;;
40074;SDS011;26529;51.530;11.754;2023-01-29T01:17:59;12.32;;;7.93;;
40074;SDS011;26529;51.530;11.754;2023-01-29T01:20:27;13.73;;;8.05;;
40074;SDS011;26529;51.530;11.754;2023-01-29T01:22:54;15.57;;;8.73;;
40074;SDS011;26529;51.530;11.754;2023-01-29T01:25:20;16.85;;;8.45;;
40074;SDS011;26529;51.530;11.754;2023-01-29T01:27:52;13.30;;;7.85;;
40074;SDS011;26529;51.530;11.754;2023-01-29T01:30:19;16.50;;;8.25;;
40074;SDS011;26529;51.530;11.754;2023-01-29T01:32:45;15.23;;;8.32;;
40074;SDS011;26529;51.530;11.754;2023-01-29T01:35:11;15.52;;;8.77;;
40074;SDS011;26529;51.530;11.754;2023-01-29T01:37:39;16.95;;;8.48;;
40074;SDS011;26529;51.530;11.754;2023-01-29T01:40:06;13.95;;;8.13;;
40074;SDS011;26529;51.530;11.754;2023-01-29T01:42:39;12.82;;;8.00;;
40074;SDS011;26529;51.530;11.754;2023-01-29T01:45:06;12.40;;;8.10;;
40074;SDS011;26529;51.530;11.754;2023-01-29T01:47:45;15.00;;;8.68;;
40074;SDS011;26529;51.530;11.754;2023-01-29T01:50:24;15.88;;;8.45;;
40074;SDS011;26529;51.530;11.754;2023-01-29T01:53:07;14.00;;;7.60;;
40074;SDS011;26529;51.530;11.754;2023-01-29T01:55:40;15.18;;;7.45;;
40074;SDS011;26529;51.530;11.754;2023-01-29T01:58:12;14.27;;;7.72;;
40074;SDS011;26529;51.530;11.754;2023-01-29T02:00:43;13.45;;;7.72;;
40074;SDS011;26529;51.530;11.754;2023-01-29T02:03:09;13.32;;;8.45;;
40074;SDS011;26529;51.530;11.754;2023-01-29T02:05:55;16.40;;;7.82;;
40074;SDS011;26529;51.530;11.754;2023-01-29T02:08:44;12.40;;;7.72;;
40074;SDS011;26529;51.530;11.754;2023-01-29T02:11:35;13.02;;;7.68;;
40074;SDS011;26529;51.530;11.754;2023-01-29T02:14:02;13.43;;;8.07;;
40074;SDS011;26529;51.530;11.754;2023-01-29T02:16:28;13.52;;;7.80;;
40074;SDS011;26529;51.530;11.754;2023-01-29T02:18:54;13.07;;;7.47;;
40074;SDS011;26529;51.530;11.754;2023-01-29T02:21:32;11.40;;;7.30;;
40074;SDS011;26529;51.530;11.754;2023-01-29T02:24:21;12.25;;;6.82;;
40074;SDS011;26529;51.530;11.754;2023-01-29T02:32:52;10.63;;;7.18;;
40074;SDS011;26529;51.530;11.754;2023-01-29T02:35:42;12.73;;;7.25;;
40074;SDS011;26529;51.530;11.754;2023-01-29T02:40:54;10.88;;;6.97;;
40074;SDS011;26529;51.530;11.754;2023-01-29T02:49:30;11.88;;;7.03;;
40074;SDS011;26529;51.530;11.754;2023-01-29T02:52:08;10.55;;;6.63;;
40074;SDS011;26529;51.530;11.754;2023-01-29T02:54:50;12.23;;;7.40;;
40074;SDS011;26529;51.530;11.754;2023-01-29T02:57:21;11.05;;;6.75;;
40074;SDS011;26529;51.530;11.754;2023-01-29T03:00:12;11.52;;;7.03;;
40074;SDS011;26529;51.530;11.754;2023-01-29T03:05:27;13.10;;;7.25;;
40074;SDS011;26529;51.530;11.754;2023-01-29T03:08:00;10.75;;;7.03;;
40074;SDS011;26529;51.530;11.754;2023-01-29T03:10:38;10.43;;;6.60;;
40074;SDS011;26529;51.530;11.754;2023-01-29T03:15:51;12.00;;;6.13;;
40074;SDS011;26529;51.530;11.754;2023-01-29T03:18:42;10.88;;;6.50;;
40074;SDS011;26529;51.530;11.754;2023-01-29T03:21:13;9.77;;;6.07;;
40074;SDS011;26529;51.530;11.754;2023-01-29T03:24:12;9.20;;;5.90;;
40074;SDS011;26529;51.530;11.754;2023-01-29T03:27:00;9.75;;;6.13;;
40074;SDS011;26529;51.530;11.754;2023-01-29T03:29:48;10.02;;;6.60;;
40074;SDS011;26529;51.530;11.754;2023-01-29T03:32:45;12.45;;;6.90;;
40074;SDS011;26529;51.530;11.754;2023-01-29T03:35:13;9.68;;;6.28;;
40074;SDS011;26529;51.530;11.754;2023-01-29T03:37:58;7.95;;;5.78;;
40074;SDS011;26529;51.530;11.754;2023-01-29T03:40:25;9.80;;;6.43;;
40074;SDS011;26529;51.530;11.754;2023-01-29T03:43:04;11.50;;;5.82;;
40074;SDS011;26529;51.530;11.754;2023-01-29T03:45:48;10.38;;;6.38;;
40074;SDS011;26529;51.530;11.754;2023-01-29T03:51:12;13.35;;;6.72;;
40074;SDS011;26529;51.530;11.754;2023-01-29T03:53:47;13.32;;;6.38;;
40074;SDS011;26529;51.530;11.754;2023-01-29T03:56:40;10.07;;;6.57;;
40074;SDS011;26529;51.530;11.754;2023-01-29T03:59:36;9.25;;;5.72;;
40074;SDS011;26529;51.530;11.754;2023-01-29T04:02:26;9.15;;;5.72;;
40074;SDS011;26529;51.530;11.754;2023-01-29T04:05:01;9.23;;;5.68;;
40074;SDS011;26529;51.530;11.754;2023-01-29T04:07:43;8.50;;;5.88;;
40074;SDS011;26529;51.530;11.754;2023-01-29T04:10:15;10.15;;;5.88;;
40074;SDS011;26529;51.530;11.754;2023-01-29T04:12:48;10.52;;;5.68;;
40074;SDS011;26529;51.530;11.754;2023-01-29T04:15:19;9.23;;;5.38;;
40074;SDS011;26529;51.530;11.754;2023-01-29T04:17:50;8.45;;;5.57;;
40074;SDS011;26529;51.530;11.754;2023-01-29T04:20:24;8.90;;;6.00;;
40074;SDS011;26529;51.530;11.754;2023-01-29T04:22:50;9.52;;;5.30;;
40074;SDS011;26529;51.530;11.754;2023-01-29T04:25:19;10.45;;;5.35;;
40074;SDS011;26529;51.530;11.754;2023-01-29T04:28:05;8.63;;;5.13;;
40074;SDS011;26529;51.530;11.754;2023-01-29T04:30:43;9.05;;;6.18;;
40074;SDS011;26529;51.530;11.754;2023-01-29T04:39:19;8.48;;;5.13;;
40074;SDS011;26529;51.530;11.754;2023-01-29T04:41:54;10.25;;;6.03;;
40074;SDS011;26529;51.530;11.754;2023-01-29T04:50:01;8.48;;;5.18;;
40074;SDS011;26529;51.530;11.754;2023-01-29T04:58:13;12.10;;;5.18;;
40074;SDS011;26529;51.530;11.754;2023-01-29T05:01:40;14.35;;;5.82;;
40074;SDS011;26529;51.530;11.754;2023-01-29T05:04:08;9.95;;;5.00;;
40074;SDS011;26529;51.530;11.754;2023-01-29T05:06:38;8.10;;;5.03;;
40074;SDS011;26529;51.530;11.754;2023-01-29T05:09:05;7.38;;;4.63;;
40074;SDS011;26529;51.530;11.754;2023-01-29T05:11:32;8.63;;;4.40;;
40074;SDS011;26529;51.530;11.754;2023-01-29T05:14:00;8.68;;;4.90;;
40074;SDS011;26529;51.530;11.754;2023-01-29T05:16:33;10.10;;;4.93;;
40074;SDS011;26529;51.530;11.754;2023-01-29T05:19:07;6.93;;;4.82;;
40074;SDS011;26529;51.530;11.754;2023-01-29T05:21:34;7.78;;;4.45;;
40074;SDS011;26529;51.530;11.754;2023-01-29T05:24:09;9.15;;;5.07;;
40074;SDS011;26529;51.530;11.754;2023-01-29T05:29:19;7.97;;;4.70;;
40074;SDS011;26529;51.530;11.754;2023-01-29T05:31:45;8.77;;;4.70;;
40074;SDS011;26529;51.530;11.754;2023-01-29T05:34:11;7.32;;;4.70;;
40074;SDS011;26529;51.530;11.754;2023-01-29T05:36:36;10.00;;;5.38;;
40074;SDS011;26529;51.530;11.754;2023-01-29T05:39:02;9.15;;;4.47;;
40074;SDS011;26529;51.530;11.754;2023-01-29T05:41:27;7.65;;;4.13;;
40074;SDS011;26529;51.530;11.754;2023-01-29T05:43:53;8.60;;;4.93;;
40074;SDS011;26529;51.530;11.754;2023-01-29T05:46:18;7.40;;;4.78;;
40074;SDS011;26529;51.530;11.754;2023-01-29T05:48:44;7.07;;;3.95;;
40074;SDS011;26529;51.530;11.754;2023-01-29T05:51:09;8.10;;;4.30;;
40074;SDS011;26529;51.530;11.754;2023-01-29T05:53:34;7.57;;;4.00;;
40074;SDS011;26529;51.530;11.754;2023-01-29T05:56:01;7.20;;;4.03;;
40074;SDS011;26529;51.530;11.754;2023-01-29T05:58:29;8.00;;;3.75;;
40074;SDS011;26529;51.530;11.754;2023-01-29T06:00:55;7.82;;;4.18;;
40074;SDS011;26529;51.530;11.754;2023-01-29T06:03:21;9.13;;;4.50;;
40074;SDS011;26529;51.530;11.754;2023-01-29T06:05:46;8.63;;;4.72;;
40074;SDS011;26529;51.530;11.754;2023-01-29T06:08:11;7.03;;;4.03;;
40074;SDS011;26529;51.530;11.754;2023-01-29T06:10:37;7.25;;;4.05;;
40074;SDS011;26529;51.530;11.754;2023-01-29T06:13:02;7.75;;;3.97;;
40074;SDS011;26529;51.530;11.754;2023-01-29T06:15:28;6.40;;;4.22;;
40074;SDS011;26529;51.530;11.754;2023-01-29T06:17:54;8.50;;;4.25;;
40074;SDS011;26529;51.530;11.754;2023-01-29T06:20:21;8.00;;;4.03;;
40074;SDS011;26529;51.530;11.754;2023-01-29T06:22:46;6.68;;;3.80;;
40074;SDS011;26529;51.530;11.754;2023-01-29T06:25:12;5.63;;;3.42;;
40074;SDS011;26529;51.530;11.754;2023-01-29T06:27:37;8.45;;;3.83;;
40074;SDS011;26529;51.530;11.754;2023-01-29T06:30:03;7.85;;;3.78;;
40074;SDS011;26529;51.530;11.754;2023-01-29T06:32:29;6.50;;;4.05;;
40074;SDS011;26529;51.530;11.754;2023-01-29T06:34:55;6.85;;;3.47;;
40074;SDS011;26529;51.530;11.754;2023-01-29T06:37:20;5.25;;;3.42;;
40074;SDS011;26529;51.530;11.754;2023-01-29T06:39:45;5.93;;;3.22;;
40074;SDS011;26529;51.530;11.754;2023-01-29T06:42:11;5.78;;;3.55;;
40074;SDS011;26529;51.530;11.754;2023-01-29T06:44:36;6.47;;;3.42;;
40074;SDS011;26529;51.530;11.754;2023-01-29T06:47:02;4.05;;;3.28;;
40074;SDS011;26529;51.530;11.754;2023-01-29T06:49:27;6.75;;;3.20;;
40074;SDS011;26529;51.530;11.754;2023-01-29T06:51:53;7.53;;;3.55;;
40074;SDS011;26529;51.530;11.754;2023-01-29T06:54:18;11.10;;;3.55;;
40074;SDS011;26529;51.530;11.754;2023-01-29T06:56:43;5.72;;;2.97;;
40074;SDS011;26529;51.530;11.754;2023-01-29T06:59:10;7.93;;;3.35;;
40074;SDS011;26529;51.530;11.754;2023-01-29T07:01:40;6.47;;;3.42;;
40074;SDS011;26529;51.530;11.754;2023-01-29T07:04:08;8.90;;;3.60;;
40074;SDS011;26529;51.530;11.754;2023-01-29T07:06:34;7.97;;;3.40;;
40074;SDS011;26529;51.530;11.754;2023-01-29T07:09:00;9.80;;;2.53;;
40074;SDS011;26529;51.530;11.754;2023-01-29T07:11:26;12.23;;;3.28;;
40074;SDS011;26529;51.530;11.754;2023-01-29T07:13:51;10.23;;;3.22;;
40074;SDS011;26529;51.530;11.754;2023-01-29T07:16:16;10.98;;;3.22;;
40074;SDS011;26529;51.530;11.754;2023-01-29T07:18:43;7.43;;;2.95;;
40074;SDS011;26529;51.530;11.754;2023-01-29T07:21:09;6.60;;;2.78;;
40074;SDS011;26529;51.530;11.754;2023-01-29T07:23:34;7.07;;;3.22;;
40074;SDS011;26529;51.530;11.754;2023-01-29T07:26:00;9.20;;;2.33;;
40074;SDS011;26529;51.530;11.754;2023-01-29T07:28:27;14.55;;;2.70;;
40074;SDS011;26529;51.530;11.754;2023-01-29T07:30:56;7.50;;;2.85;;
40074;SDS011;26529;51.530;11.754;2023-01-29T07:33:22;15.85;;;5.50;;
40074;SDS011;26529;51.530;11.754;2023-01-29T07:35:48;14.73;;;5.15;;
40074;SDS011;26529;51.530;11.754;2023-01-29T07:38:14;11.93;;;4.47;;
40074;SDS011;26529;51.530;11.754;2023-01-29T07:40:39;22.25;;;5.57;;
40074;SDS011;26529;51.530;11.754;2023-01-29T07:43:05;13.50;;;4.35;;
40074;SDS011;26529;51.530;11.754;2023-01-29T07:45:33;13.05;;;5.10;;
40074;SDS011;26529;51.530;11.754;2023-01-29T07:48:00;21.98;;;5.43;;
40074;SDS011;26529;51.530;11.754;2023-01-29T07:50:25;20.60;;;5.55;;
40074;SDS011;26529;51.530;11.754;2023-01-29T07:52:54;18.50;;;5.05;;
40074;SDS011;26529;51.530;11.754;2023-01-29T07:55:20;14.73;;;5.30;;
40074;SDS011;26529;51.530;11.754;2023-01-29T07:57:45;18.08;;;5.05;;
40074;SDS011;26529;51.530;11.754;2023-01-29T08:00:11;18.25;;;4.60;;
40074;SDS011;26529;51.530;11.754;2023-01-29T08:02:39;14.95;;;5.22;;
40074;SDS011;26529;51.530;11.754;2023-01-29T08:05:05;16.42;;;5.15;;
40074;SDS011;26529;51.530;11.754;2023-01-29T08:07:31;18.77;;;4.53;;
40074;SDS011;26529;51.530;11.754;2023-01-29T08:09:56;67.32;;;31.10;;
40074;SDS011;26529;51.530;11.754;2023-01-29T08:12:22;84.25;;;35.72;;
40074;SDS011;26529;51.530;11.754;2023-01-29T08:14:47;101.70;;;50.88;;
40074;SDS011;26529;51.530;11.754;2023-01-29T08:17:13;120.18;;;59.47;;
40074;SDS011;26529;51.530;11.754;2023-01-29T08:19:38;116.70;;;54.35;;
40074;SDS011;26529;51.530;11.754;2023-01-29T08:22:04;106.18;;;52.25;;
40074;SDS011;26529;51.530;11.754;2023-01-29T08:24:30;90.45;;;39.42;;
40074;SDS011;26529;51.530;11.754;2023-01-29T08:26:55;73.63;;;38.38;;
40074;SDS011;26529;51.530;11.754;2023-01-29T08:29:21;65.13;;;37.55;;
40074;SDS011;26529;51.530;11.754;2023-01-29T08:31:47;84.10;;;38.80;;
40074;SDS011;26529;51.530;11.754;2023-01-29T08:34:12;71.10;;;36.22;;
40074;SDS011;26529;51.530;11.754;2023-01-29T08:36:38;74.82;;;37.47;;
40074;SDS011;26529;51.530;11.754;2023-01-29T08:39:03;68.95;;;37.17;;
40074;SDS011;26529;51.530;11.754;2023-01-29T08:41:29;57.83;;;31.65;;
40074;SDS011;26529;51.530;11.754;2023-01-29T08:43:54;51.60;;;28.48;;
40074;SDS011;26529;51.530;11.754;2023-01-29T08:46:21;49.58;;;26.98;;
40074;SDS011;26529;51.530;11.754;2023-01-29T08:48:46;55.03;;;27.35;;
40074;SDS011;26529;51.530;11.754;2023-01-29T08:51:12;57.53;;;27.63;;
40074;SDS011;26529;51.530;11.754;2023-01-29T08:53:37;48.70;;;25.08;;
40074;SDS011;26529;51.530;11.754;2023-01-29T08:56:03;46.22;;;22.15;;
40074;SDS011;26529;51.530;11.754;2023-01-29T08:58:28;48.38;;;22.02;;
40074;SDS011;26529;51.530;11.754;2023-01-29T09:00:54;38.42;;;19.88;;
40074;SDS011;26529;51.530;11.754;2023-01-29T09:03:19;46.72;;;20.38;;
40074;SDS011;26529;51.530;11.754;2023-01-29T09:05:44;42.95;;;19.67;;
40074;SDS011;26529;51.530;11.754;2023-01-29T09:08:11;39.72;;;18.50;;
40074;SDS011;26529;51.530;11.754;2023-01-29T09:10:36;35.65;;;16.73;;
40074;SDS011;26529;51.530;11.754;2023-01-29T09:13:02;31.48;;;15.82;;
40074;SDS011;26529;51.530;11.754;2023-01-29T09:15:27;34.97;;;16.33;;
40074;SDS011;26529;51.530;11.754;2023-01-29T09:17:53;36.47;;;17.10;;
40074;SDS011;26529;51.530;11.754;2023-01-29T09:20:18;31.98;;;15.82;;
40074;SDS011;26529;51.530;11.754;2023-01-29T09:22:44;35.15;;;16.08;;
40074;SDS011;26529;51.530;11.754;2023-01-29T09:25:10;26.05;;;13.65;;
40074;SDS011;26529;51.530;11.754;2023-01-29T09:27:36;28.55;;;13.95;;
40074;SDS011;26529;51.530;11.754;2023-01-29T09:30:02;28.80;;;14.57;;
40074;SDS011;26529;51.530;11.754;2023-01-29T09:32:28;23.20;;;13.05;;
40074;SDS011;26529;51.530;11.754;2023-01-29T09:34:57;22.63;;;12.48;;
40074;SDS011;26529;51.530;11.754;2023-01-29T09:37:23;23.92;;;12.43;;
40074;SDS011;26529;51.530;11.754;2023-01-29T09:39:48;22.90;;;12.07;;
40074;SDS011;26529;51.530;11.754;2023-01-29T09:42:36;25.15;;;12.32;;
40074;SDS011;26529;51.530;11.754;2023-01-29T09:45:13;23.15;;;11.98;;
40074;SDS011;26529;51.530;11.754;2023-01-29T09:47:41;22.02;;;11.90;;
40074;SDS011;26529;51.530;11.754;2023-01-29T09:50:21;22.50;;;11.38;;
40074;SDS011;26529;51.530;11.754;2023-01-29T09:52:52;16.23;;;9.88;;
40074;SDS011;26529;51.530;11.754;2023-01-29T09:55:26;21.77;;;11.35;;
40074;SDS011;26529;51.530;11.754;2023-01-29T09:57:55;20.77;;;10.15;;
40074;SDS011;26529;51.530;11.754;2023-01-29T10:00:26;19.77;;;10.40;;
40074;SDS011;26529;51.530;11.754;2023-01-29T10:03:16;17.65;;;9.48;;
40074;SDS011;26529;51.530;11.754;2023-01-29T10:08:44;16.70;;;9.35;;
40074;SDS011;26529;51.530;11.754;2023-01-29T10:14:29;15.77;;;8.35;;
40074;SDS011;26529;51.530;11.754;2023-01-29T10:17:27;18.50;;;8.95;;
40074;SDS011;26529;51.530;11.754;2023-01-29T10:20:10;16.55;;;8.60;;
40074;SDS011;26529;51.530;11.754;2023-01-29T10:25:40;15.90;;;8.23;;
40074;SDS011;26529;51.530;11.754;2023-01-29T10:28:14;19.23;;;8.45;;
40074;SDS011;26529;51.530;11.754;2023-01-29T10:30:47;19.10;;;8.35;;
40074;SDS011;26529;51.530;11.754;2023-01-29T10:33:19;23.70;;;8.57;;
40074;SDS011;26529;51.530;11.754;2023-01-29T10:35:52;16.35;;;7.97;;
40074;SDS011;26529;51.530;11.754;2023-01-29T10:38:34;20.35;;;7.72;;
40074;SDS011;26529;51.530;11.754;2023-01-29T10:43:59;24.55;;;8.38;;
40074;SDS011;26529;51.530;11.754;2023-01-29T10:54:56;16.77;;;7.17;;
40074;SDS011;26529;51.530;11.754;2023-01-29T11:00:11;29.10;;;7.63;;
40074;SDS011;26529;51.530;11.754;2023-01-29T11:02:44;16.35;;;7.03;;
40074;SDS011;26529;51.530;11.754;2023-01-29T11:05:26;19.35;;;6.75;;
40074;SDS011;26529;51.530;11.754;2023-01-29T11:08:08;20.92;;;7.28;;
40074;SDS011;26529;51.530;11.754;2023-01-29T11:13:38;20.33;;;7.13;;
40074;SDS011;26529;51.530;11.754;2023-01-29T11:16:14;19.75;;;6.90;;
40074;SDS011;26529;51.530;11.754;2023-01-29T11:18:53;19.23;;;7.50;;
40074;SDS011;26529;51.530;11.754;2023-01-29T11:21:24;22.08;;;7.40;;
40074;SDS011;26529;51.530;11.754;2023-01-29T11:26:36;15.25;;;6.55;;
40074;SDS011;26529;51.530;11.754;2023-01-29T11:29:04;15.27;;;6.50;;
40074;SDS011;26529;51.530;11.754;2023-01-29T11:31:59;14.52;;;6.90;;
40074;SDS011;26529;51.530;11.754;2023-01-29T11:34:28;14.95;;;6.00;;
40074;SDS011;26529;51.530;11.754;2023-01-29T11:36:59;14.38;;;6.38;;
40074;SDS011;26529;51.530;11.754;2023-01-29T11:39:29;14.82;;;6.05;;
40074;SDS011;26529;51.530;11.754;2023-01-29T11:44:38;19.23;;;7.13;;
40074;SDS011;26529;51.530;11.754;2023-01-29T11:47:10;21.60;;;6.40;;
40074;SDS011;26529;51.530;11.754;2023-01-29T11:49:37;22.23;;;6.57;;
40074;SDS011;26529;51.530;11.754;2023-01-29T11:52:08;16.17;;;6.32;;
40074;SDS011;26529;51.530;11.754;2023-01-29T11:54:39;15.15;;;5.57;;
40074;SDS011;26529;51.530;11.754;2023-01-29T11:59:48;15.80;;;5.47;;
40074;SDS011;26529;51.530;11.754;2023-01-29T12:02:23;23.80;;;6.15;;
40074;SDS011;26529;51.530;11.754;2023-01-29T12:04:55;18.05;;;5.93;;
40074;SDS011;26529;51.530;11.754;2023-01-29T12:07:24;14.60;;;6.63;;
40074;SDS011;26529;51.530;11.754;2023-01-29T12:09:54;19.80;;;6.22;;
40074;SDS011;26529;51.530;11.754;2023-01-29T12:17:55;15.95;;;6.32;;
40074;SDS011;26529;51.530;11.754;2023-01-29T12:20:29;17.95;;;6.28;;
40074;SDS011;26529;51.530;11.754;2023-01-29T12:23:02;15.52;;;6.55;;
40074;SDS011;26529;51.530;11.754;2023-01-29T12:25:40;16.40;;;5.75;;
40074;SDS011;26529;51.530;11.754;2023-01-29T12:28:16;14.80;;;5.75;;
40074;SDS011;26529;51.530;11.754;2023-01-29T12:31:02;10.00;;;4.70;;
40074;SDS011;26529;51.530;11.754;2023-01-29T12:33:47;10.63;;;5.63;;
40074;SDS011;26529;51.530;11.754;2023-01-29T12:36:31;14.43;;;5.47;;
40074;SDS011;26529;51.530;11.754;2023-01-29T12:38:57;11.65;;;5.55;;
40074;SDS011;26529;51.530;11.754;2023-01-29T12:44:15;15.07;;;6.63;;
40074;SDS011;26529;51.530;11.754;2023-01-29T12:46:55;17.08;;;6.40;;
40074;SDS011;26529;51.530;11.754;2023-01-29T12:49:26;14.93;;;6.07;;
40074;SDS011;26529;51.530;11.754;2023-01-29T12:52:03;11.82;;;5.53;;
40074;SDS011;26529;51.530;11.754;2023-01-29T12:54:41;14.02;;;5.20;;
40074;SDS011;26529;51.530;11.754;2023-01-29T12:57:22;12.82;;;6.50;;
40074;SDS011;26529;51.530;11.754;2023-01-29T12:59:56;16.80;;;6.00;;
40074;SDS011;26529;51.530;11.754;2023-01-29T13:02:44;16.17;;;6.03;;
40074;SDS011;26529;51.530;11.754;2023-01-29T13:07:46;14.13;;;6.68;;
40074;SDS011;26529;51.530;11.754;2023-01-29T13:10:19;11.95;;;4.57;;
40074;SDS011;26529;51.530;11.754;2023-01-29T13:12:57;9.90;;;5.20;;
40074;SDS011;26529;51.530;11.754;2023-01-29T13:15:30;11.80;;;5.25;;
40074;SDS011;26529;51.530;11.754;2023-01-29T13:18:13;16.42;;;6.35;;
40074;SDS011;26529;51.530;11.754;2023-01-29T13:21:19;10.73;;;5.75;;
40074;SDS011;26529;51.530;11.754;2023-01-29T13:23:48;14.60;;;6.68;;
40074;SDS011;26529;51.530;11.754;2023-01-29T13:26:17;14.18;;;6.00;;
40074;SDS011;26529;51.530;11.754;2023-01-29T13:28:44;13.10;;;6.13;;
40074;SDS011;26529;51.530;11.754;2023-01-29T13:31:32;15.68;;;6.03;;
40074;SDS011;26529;51.530;11.754;2023-01-29T13:34:15;10.05;;;5.68;;
40074;SDS011;26529;51.530;11.754;2023-01-29T13:36:53;15.05;;;6.00;;
40074;SDS011;26529;51.530;11.754;2023-01-29T13:39:23;11.55;;;5.60;;
40074;SDS011;26529;51.530;11.754;2023-01-29T13:41:53;10.60;;;6.13;;
40074;SDS011;26529;51.530;11.754;2023-01-29T13:44:24;15.68;;;5.97;;
40074;SDS011;26529;51.530;11.754;2023-01-29T13:46:59;12.13;;;5.75;;
40074;SDS011;26529;51.530;11.754;2023-01-29T14:00:54;13.45;;;5.90;;
40074;SDS011;26529;51.530;11.754;2023-01-29T14:08:00;12.85;;;5.93;;
40074;SDS011;26529;51.530;11.754;2023-01-29T14:10:27;12.45;;;5.50;;
40074;SDS011;26529;51.530;11.754;2023-01-29T14:13:40;13.05;;;6.28;;
40074;SDS011;26529;51.530;11.754;2023-01-29T14:15:43;13.10;;;5.85;;
40074;SDS011;26529;51.530;11.754;2023-01-29T14:20:55;9.88;;;5.50;;
40074;SDS011;26529;51.530;11.754;2023-01-29T14:25:55;12.02;;;6.68;;
40074;SDS011;26529;51.530;11.754;2023-01-29T14:28:25;9.70;;;5.10;;
40074;SDS011;26529;51.530;11.754;2023-01-29T14:30:53;9.02;;;5.47;;
40074;SDS011;26529;51.530;11.754;2023-01-29T14:36:03;13.23;;;6.38;;
40074;SDS011;26529;51.530;11.754;2023-01-29T14:38:50;9.90;;;5.43;;
40074;SDS011;26529;51.530;11.754;2023-01-29T14:41:28;9.82;;;5.93;;
40074;SDS011;26529;51.530;11.754;2023-01-29T14:46:59;12.57;;;6.25;;
40074;SDS011;26529;51.530;11.754;2023-01-29T14:52:27;13.75;;;5.80;;
40074;SDS011;26529;51.530;11.754;2023-01-29T14:55:00;10.25;;;6.53;;
40074;SDS011;26529;51.530;11.754;2023-01-29T14:57:28;9.90;;;5.93;;
40074;SDS011;26529;51.530;11.754;2023-01-29T14:59:56;12.82;;;5.95;;
40074;SDS011;26529;51.530;11.754;2023-01-29T15:02:23;10.73;;;5.32;;
40074;SDS011;26529;51.530;11.754;2023-01-29T15:04:57;9.85;;;5.30;;
40074;SDS011;26529;51.530;11.754;2023-01-29T15:07:26;11.77;;;5.63;;
40074;SDS011;26529;51.530;11.754;2023-01-29T15:12:47;11.63;;;5.70;;
40074;SDS011;26529;51.530;11.754;2023-01-29T15:15:34;11.65;;;5.53;;
40074;SDS011;26529;51.530;11.754;2023-01-29T15:18:13;9.20;;;5.45;;
40074;SDS011;26529;51.530;11.754;2023-01-29T15:20:43;10.43;;;5.78;;
40074;SDS011;26529;51.530;11.754;2023-01-29T15:23:23;10.20;;;5.88;;
40074;SDS011;26529;51.530;11.754;2023-01-29T15:25:53;11.15;;;5.97;;
40074;SDS011;26529;51.530;11.754;2023-01-29T15:28:21;11.35;;;6.22;;
40074;SDS011;26529;51.530;11.754;2023-01-29T15:30:53;12.57;;;5.90;;
40074;SDS011;26529;51.530;11.754;2023-01-29T15:33:21;9.82;;;5.40;;
40074;SDS011;26529;51.530;11.754;2023-01-29T15:35:46;13.00;;;6.30;;
40074;SDS011;26529;51.530;11.754;2023-01-29T15:38:22;11.20;;;5.60;;
40074;SDS011;26529;51.530;11.754;2023-01-29T15:41:00;9.43;;;5.63;;
40074;SDS011;26529;51.530;11.754;2023-01-29T15:45:58;9.18;;;5.90;;
40074;SDS011;26529;51.530;11.754;2023-01-29T15:48:47;11.00;;;5.85;;
40074;SDS011;26529;51.530;11.754;2023-01-29T15:51:17;10.20;;;6.13;;
40074;SDS011;26529;51.530;11.754;2023-01-29T15:53:55;10.70;;;5.60;;
40074;SDS011;26529;51.530;11.754;2023-01-29T15:56:25;9.65;;;5.57;;
40074;SDS011;26529;51.530;11.754;2023-01-29T15:58:53;8.23;;;5.10;;
40074;SDS011;26529;51.530;11.754;2023-01-29T16:01:24;11.23;;;5.88;;
40074;SDS011;26529;51.530;11.754;2023-01-29T16:03:50;12.13;;;6.82;;
40074;SDS011;26529;51.530;11.754;2023-01-29T16:06:16;13.63;;;6.78;;
40074;SDS011;26529;51.530;11.754;2023-01-29T16:08:43;9.52;;;5.57;;
40074;SDS011;26529;51.530;11.754;2023-01-29T16:11:12;9.93;;;5.88;;
40074;SDS011;26529;51.530;11.754;2023-01-29T16:13:40;10.35;;;5.78;;
40074;SDS011;26529;51.530;11.754;2023-01-29T16:18:39;11.07;;;6.35;;
40074;SDS011;26529;51.530;11.754;2023-01-29T16:21:16;10.45;;;5.78;;
40074;SDS011;26529;51.530;11.754;2023-01-29T16:23:50;9.65;;;6.05;;
40074;SDS011;26529;51.530;11.754;2023-01-29T16:26:19;11.15;;;6.25;;
40074;SDS011;26529;51.530;11.754;2023-01-29T16:29:08;11.50;;;6.18;;
40074;SDS011;26529;51.530;11.754;2023-01-29T16:31:36;9.43;;;5.57;;
40074;SDS011;26529;51.530;11.754;2023-01-29T16:34:13;11.55;;;6.82;;
40074;SDS011;26529;51.530;11.754;2023-01-29T16:36:46;9.52;;;6.50;;
40074;SDS011;26529;51.530;11.754;2023-01-29T16:39:15;10.52;;;6.10;;
40074;SDS011;26529;51.530;11.754;2023-01-29T16:44:45;10.55;;;5.97;;
40074;SDS011;26529;51.530;11.754;2023-01-29T16:47:19;11.32;;;6.13;;
40074;SDS011;26529;51.530;11.754;2023-01-29T16:49:49;10.65;;;6.18;;
40074;SDS011;26529;51.530;11.754;2023-01-29T16:52:18;9.88;;;6.28;;
40074;SDS011;26529;51.530;11.754;2023-01-29T16:54:43;11.30;;;6.43;;
40074;SDS011;26529;51.530;11.754;2023-01-29T16:57:13;11.73;;;6.53;;